createdAt,value
2023-05-10T00:00:49.280Z,84.31891
2023-05-10T00:05:50.905Z,84.63927
2023-05-10T00:10:52.394Z,84.63927
2023-05-10T00:15:54.045Z,84.9611
2023-05-10T00:20:55.666Z,85.2844
2023-05-10T00:25:57.176Z,85.2844
2023-05-10T00:30:58.643Z,84.63927
2023-05-10T00:36:00.255Z,84.31891
2023-05-10T00:41:01.924Z,83.68254
2023-05-10T00:46:03.619Z,82.73874
2023-05-10T00:51:05.303Z,82.73874
2023-05-10T00:56:06.837Z,83.05192
2023-05-10T01:01:08.544Z,82.73874
2023-05-10T01:06:09.849Z,82.11659
2023-05-10T01:11:11.186Z,82.42697
2023-05-10T01:16:12.896Z,81.5
2023-05-10T01:21:14.306Z,81.5
2023-05-10T01:26:16.071Z,80.88889
2023-05-10T01:31:17.962Z,81.5
2023-05-10T01:36:19.568Z,81.5
2023-05-10T01:41:21.197Z,82.42697
2023-05-10T01:46:22.784Z,82.11659
2023-05-10T01:51:24.496Z,82.11659
2023-05-10T01:56:26.177Z,82.42697
2023-05-10T02:01:27.462Z,82.11659
2023-05-10T02:06:28.731Z,82.11659
2023-05-10T02:11:30.044Z,82.42697
2023-05-10T02:16:31.367Z,81.80761
2023-05-10T02:21:33.077Z,81.5
2023-05-10T02:26:34.333Z,81.19376
2023-05-10T02:31:35.636Z,79.68282
2023-05-10T02:36:36.884Z,80.28319
2023-05-10T02:41:38.279Z,80.88889
2023-05-10T02:46:39.637Z,80.88889
2023-05-10T02:51:41.043Z,81.19376
2023-05-10T02:56:42.527Z,81.5
2023-05-10T03:01:43.841Z,81.80761
2023-05-10T03:06:45.345Z,81.19376
2023-05-10T03:11:47.058Z,81.19376
2023-05-10T03:16:48.353Z,80.58537
2023-05-10T03:21:50.074Z,80.88889
2023-05-10T03:26:51.717Z,80.58537
2023-05-10T03:31:53.131Z,80.88889
2023-05-10T03:36:54.791Z,81.80761
2023-05-10T03:41:56.421Z,83.68254
2023-05-10T03:46:58.090Z,84.9611
2023-05-10T03:51:59.747Z,86.59259
2023-05-10T03:57:01.401Z,87.25581
2023-05-10T04:02:03.209Z,88.94118
2023-05-10T04:07:04.912Z,89.62648
2023-05-10T04:12:08.942Z,90.31829
2023-05-10T04:17:11.975Z,92.07692
2023-05-10T04:22:13.626Z,92.07692
2023-05-10T04:27:15.263Z,92.43373
2023-05-10T04:32:16.870Z,92.79227
2023-05-10T04:37:18.585Z,92.43373
2023-05-10T04:42:20.295Z,91.72182
2023-05-10T04:47:22.022Z,91.72182
2023-05-10T04:52:23.530Z,91.72182
2023-05-10T04:57:25.117Z,91.36842
2023-05-10T05:02:26.740Z,91.72182
2023-05-10T05:07:28.198Z,90.31829
2023-05-10T05:12:29.616Z,86.92343
2023-05-10T05:17:30.979Z,83.36652
2023-05-10T05:22:32.473Z,81.80761
2023-05-10T05:27:33.795Z,80.88889
2023-05-10T05:32:35.179Z,80.28319
2023-05-10T05:37:36.522Z,79.68282
2023-05-10T05:42:38.159Z,79.38462
2023-05-10T05:47:39.448Z,79.38462
2023-05-10T05:52:40.885Z,79.68282
2023-05-10T05:57:42.638Z,81.19376
2023-05-10T06:02:44.285Z,83.05192
2023-05-10T06:07:46.171Z,87.58974
2023-05-10T06:12:47.885Z,82.42697
2023-05-10T06:17:49.438Z,84
2023-05-10T06:22:51.004Z,83.05192
2023-05-10T06:27:53.971Z,89.62648
2023-05-10T06:32:55.744Z,93.51456
2023-05-10T06:37:57.441Z,108.26667
2023-05-10T06:42:59.096Z,104.41667
2023-05-10T06:48:00.881Z,105.67979
2023-05-10T06:53:02.578Z,116.06704
2023-05-10T06:58:04.305Z,113.23077
2023-05-10T07:03:05.967Z,109.5914
2023-05-10T07:08:07.703Z,111.3913
2023-05-10T07:13:09.488Z,111.3913
2023-05-10T07:18:11.303Z,124.11696
2023-05-10T07:23:12.989Z,128.43114
2023-05-10T07:28:14.932Z,128.98498
2023-05-10T07:33:16.621Z,128.43114
2023-05-10T07:38:18.285Z,127.33333
2023-05-10T07:43:19.981Z,135.90031
2023-05-10T07:48:21.932Z,135.30435
2023-05-10T07:53:23.602Z,135.30435
2023-05-10T07:58:25.323Z,130.10272
2023-05-10T08:03:27.183Z,135.30435
2023-05-10T08:08:28.646Z,156.41379
2023-05-10T08:13:29.944Z,146.63158
2023-05-10T08:18:31.355Z,152.10811
2023-05-10T08:23:32.742Z,160.14035
2023-05-10T08:28:34.257Z,145.96721
2023-05-10T08:33:35.560Z,145.96721
2023-05-10T08:38:36.874Z,146.63158
2023-05-10T08:43:38.411Z,150.02007
2023-05-10T08:48:40.178Z,150.02007
2023-05-10T08:53:41.468Z,138.32177
2023-05-10T08:58:42.811Z,126.24852
2023-05-10T09:03:44.452Z,118.0113
2023-05-10T09:08:45.786Z,116.54902
2023-05-10T09:13:47.395Z,123.59184
2023-05-10T09:18:49.181Z,122.55072
2023-05-10T09:23:51.099Z,140.17834
2023-05-10T09:28:53.057Z,137.71069
2023-05-10T09:33:54.888Z,129.54217
2023-05-10T09:38:56.479Z,132.95706
2023-05-10T09:43:57.905Z,147.97351
2023-05-10T09:48:59.220Z,147.97351
2023-05-10T09:54:00.547Z,165.58273
2023-05-10T09:59:02.481Z,159.38462
2023-05-10T10:04:04.208Z,144.65147
2023-05-10T10:09:05.837Z,150.71141
2023-05-10T10:14:07.485Z,159.38462
2023-05-10T10:19:09.068Z,161.66784
2023-05-10T10:24:10.860Z,195.42857
2023-05-10T10:29:12.819Z,282.46154
2023-05-10T10:34:14.634Z,308.49704
2023-05-10T10:39:16.427Z,247.44828
2023-05-10T10:44:18.047Z,237.33333
2023-05-10T10:49:19.819Z,235.94313
2023-05-10T10:54:21.414Z,243.02913
2023-05-10T10:59:23.016Z,253.54774
2023-05-10T11:04:24.688Z,263.17098
2023-05-10T11:09:26.581Z,229.18519
2023-05-10T11:14:28.464Z,211.82609
2023-05-10T11:19:29.912Z,0
2023-05-10T11:24:31.279Z,0
2023-05-10T11:29:32.598Z,234.56604
2023-05-10T11:34:33.938Z,207.24786
2023-05-10T11:39:38.624Z,222.73303
2023-05-10T11:44:40.058Z,210.66667
2023-05-10T11:49:41.353Z,230.51163
2023-05-10T11:54:42.629Z,0
2023-05-10T11:59:44.071Z,227.87097
2023-05-10T12:04:45.377Z,175.57895
2023-05-10T12:09:46.796Z,217.77778
2023-05-10T12:14:48.314Z,250.46766
2023-05-10T12:19:49.560Z,264.83333
2023-05-10T12:24:50.903Z,0
2023-05-10T12:29:52.221Z,0
2023-05-10T12:34:53.541Z,0
2023-05-10T12:39:54.893Z,0
2023-05-10T12:44:56.213Z,0
2023-05-10T12:49:57.465Z,256.69036
2023-05-10T12:54:58.947Z,230.51163
2023-05-10T13:00:00.281Z,214.17544
2023-05-10T13:05:01.767Z,220.23318
2023-05-10T13:10:03.192Z,0
2023-05-10T13:15:04.576Z,0
2023-05-10T13:20:05.895Z,0
2023-05-10T13:25:07.339Z,0
2023-05-10T13:30:08.753Z,0
2023-05-10T13:35:10.417Z,0
2023-05-10T13:40:12.035Z,0
2023-05-10T13:45:13.512Z,0
2023-05-10T13:50:14.765Z,0
2023-05-10T13:55:16.206Z,0
2023-05-10T14:00:18.355Z,0
2023-05-10T14:05:24.127Z,0
2023-05-10T14:10:27.390Z,0
2023-05-10T14:15:28.700Z,0
2023-05-10T14:20:30.052Z,0
2023-05-10T14:25:31.420Z,0
2023-05-10T14:30:32.831Z,0
2023-05-10T14:35:34.227Z,0
2023-05-10T14:40:35.802Z,0
2023-05-10T14:45:37.240Z,229.18519
2023-05-10T14:50:38.603Z,0
2023-05-10T14:55:40.051Z,0
2023-05-10T15:00:41.617Z,235.94313
2023-05-10T15:05:43.551Z,168
2023-05-10T15:10:45.310Z,152.81356
2023-05-10T15:15:47.157Z,139.55556
2023-05-10T15:20:48.832Z,138.32177
2023-05-10T15:25:50.448Z,122.55072
2023-05-10T15:30:52.053Z,108.70588
2023-05-10T15:35:53.730Z,103.17313
2023-05-10T15:40:55.840Z,103.17313
2023-05-10T15:45:57.806Z,102.35476
2023-05-10T15:50:59.411Z,103.58549
2023-05-10T15:56:00.991Z,98.77387
2023-05-10T16:01:02.779Z,96.47525
2023-05-10T16:06:04.121Z,95.72414
2023-05-10T16:11:05.458Z,97.23383
2023-05-10T16:16:06.840Z,101.54476
2023-05-10T16:21:08.460Z,98.38596
2023-05-10T16:26:10.227Z,98
2023-05-10T16:31:11.757Z,97.61596
2023-05-10T16:36:13.297Z,99.16373
2023-05-10T16:41:14.781Z,98
2023-05-10T16:46:16.440Z,96.09877
2023-05-10T16:51:18.087Z,95.35135
2023-05-10T16:56:19.366Z,94.61125
2023-05-10T17:01:20.810Z,96.09877
2023-05-10T17:06:22.184Z,94.61125
2023-05-10T17:11:23.525Z,94.98039
2023-05-10T17:16:25.500Z,95.72414
2023-05-10T17:21:27.176Z,94.98039
2023-05-10T17:26:28.801Z,94.98039
2023-05-10T17:31:30.495Z,94.98039
2023-05-10T17:36:32.058Z,95.72414
2023-05-10T17:41:33.749Z,95.72414
2023-05-10T17:46:35.431Z,94.2439
2023-05-10T17:51:36.798Z,93.51456
2023-05-10T17:56:38.286Z,93.87835
2023-05-10T18:01:40.154Z,93.15254
2023-05-10T18:06:41.735Z,91.01671
2023-05-10T18:11:42.988Z,91.36842
2023-05-10T18:16:44.315Z,96.8536
2023-05-10T18:21:46.184Z,98
2023-05-10T18:26:47.882Z,106.10526
2023-05-10T18:31:49.697Z,104.83551
2023-05-10T18:36:51.514Z,102.35476
2023-05-10T18:41:53.430Z,102.76289
2023-05-10T18:46:55.288Z,104.83551
2023-05-10T18:51:57.236Z,111.3913
2023-05-10T18:56:59.187Z,118.0113
2023-05-10T19:02:01.125Z,115.11111
2023-05-10T19:07:03.134Z,108.70588
2023-05-10T19:12:05.008Z,111.3913
2023-05-10T19:17:06.877Z,115.58774
2023-05-10T19:22:08.528Z,117.52113
2023-05-10T19:27:10.315Z,118.0113
2023-05-10T19:32:12.288Z,111.84741
2023-05-10T19:37:14.200Z,111.3913
2023-05-10T19:42:15.991Z,108.26667
2023-05-10T19:47:17.893Z,106.96296
2023-05-10T19:52:19.500Z,102.76289
2023-05-10T19:57:21.449Z,102.35476
2023-05-10T20:02:23.070Z,106.10526
2023-05-10T20:07:24.774Z,106.96296
2023-05-10T20:12:26.665Z,104.83551
2023-05-10T20:17:28.277Z,100.743
2023-05-10T20:22:29.915Z,97.61596
2023-05-10T20:27:31.617Z,97.23383
2023-05-10T20:32:33.078Z,95.72414
2023-05-10T20:37:34.619Z,94.98039
2023-05-10T20:42:36.237Z,94.2439
2023-05-10T20:47:37.658Z,94.2439
2023-05-10T20:52:39.300Z,96.09877
2023-05-10T20:57:40.587Z,99.16373
2023-05-10T21:02:41.931Z,99.55556
2023-05-10T21:07:43.472Z,98.38596
2023-05-10T21:12:44.766Z,102.76289
2023-05-10T21:17:46.369Z,99.94937
2023-05-10T21:22:47.653Z,104.41667
2023-05-10T21:27:49.044Z,101.14286
2023-05-10T21:32:50.911Z,100.743
2023-05-10T21:37:52.479Z,105.25654
2023-05-10T21:42:53.855Z,106.10526
2023-05-10T21:47:55.527Z,102.76289
2023-05-10T21:52:57.209Z,108.70588
2023-05-10T21:57:58.757Z,110.03774
2023-05-10T22:03:00.364Z,108.70588
2023-05-10T22:08:02.210Z,107.82979
2023-05-10T22:13:03.943Z,112.76712
2023-05-10T22:18:05.719Z,121.52161
2023-05-10T22:23:07.420Z,125.71091
2023-05-10T22:28:09.025Z,121.01149
2023-05-10T22:33:10.818Z,128.43114
2023-05-10T22:38:12.442Z,135.90031
2023-05-10T22:43:14.053Z,128.98498
2023-05-10T22:48:15.743Z,117.03371
2023-05-10T22:53:17.451Z,108.70588
2023-05-10T22:58:19.157Z,101.54476
2023-05-10T23:03:20.814Z,97.61596
2023-05-10T23:08:22.375Z,94.2439
2023-05-10T23:13:23.908Z,93.51456
2023-05-10T23:18:25.718Z,93.15254
2023-05-10T23:23:27.339Z,93.15254
2023-05-10T23:28:28.941Z,93.51456
2023-05-10T23:33:30.681Z,93.51456
2023-05-10T23:38:32.262Z,92.43373
2023-05-10T23:43:33.609Z,92.79227
2023-05-10T23:48:34.962Z,92.43373
2023-05-10T23:53:36.285Z,92.07692
2023-05-10T23:58:37.576Z,91.36842
